Lulu Pass Weather Station

This weather station provides temperature, relative humidity (RH), wind speed, gust or max wind speed, and wind direction at 10014ft near Lulu Pass at the head of Fisher Creek. This data can be used with temperature and precipitation data from the Fisher Creek SNOTEL site.

This weather station was purchased by the Friends of the Avalanche Center.

If the data has not been updated recently you can view it directly on datagarrison.com

Elevation
10014ft
Jump to table bottom
Date Time Temperature
deg F
RH, % Wind Speed Wind Gust Wind Direction
11/12/19 08:00 16.6 34 7 16 NW - 296
11/12/19 07:00 16.1 36 6 13 W - 278
11/12/19 06:00 16.0 36 5 12 W - 263
11/12/19 05:00 16.3 37 7 17 W - 272
11/12/19 04:00 16.0 35 7 16 W - 256
11/12/19 03:00 17.2 33 9 21 SW - 240
11/12/19 02:00 17.1 35 6 18 W - 281
11/12/19 01:00 16.6 36 7 15 SW - 227
11/12/19 00:00 16.9 41 4 14 NW - 310
11/11/19 23:00 16.3 43 3 9 NW - 300
11/11/19 22:00 15.9 44 5 10 W - 289
11/11/19 21:00 15.4 41 5 10 W - 261
11/11/19 20:00 16.8 43 5 10 W - 265
11/11/19 19:00 15.2 38 7 13 N - 341
11/11/19 18:00 15.7 42 4 12 NW - 337
11/11/19 17:00 15.6 43 7 13 NW - 309
11/11/19 16:00 17.1 43 9 12 NW - 305
11/11/19 15:00 15.6 46 10 14 NW - 309
11/11/19 14:00 14.1 47 10 13 NW - 312
11/11/19 13:00 13.6 46 8 10 NW - 309
11/11/19 12:00 12.3 32 8 11 NW - 321
11/11/19 11:00 10.1 32 7 10 NW - 321
11/11/19 10:00 8.8 33 8 12 N - 344
11/11/19 09:00 6.3 42 11 14 N - 341
11/11/19 08:00 5.5 50 12 16 N - 340
11/11/19 07:00 5.3 49 10 14 N - 341
11/11/19 06:00 5.4 54 12 16 NW - 333
11/11/19 05:00 6.2 72 12 15 NW - 331
11/11/19 04:00 6.2 81 15 20 N - 341
11/11/19 03:00 6.9 90 20 26 N - 340
11/11/19 02:00 7.2 91 18 25 N - 343
11/11/19 01:00 7.6 92 20 26 N - 338
11/11/19 00:00 9.7 93 23 33 NW - 334
11/10/19 23:00 11.5 93 24 34 N - 340
11/10/19 22:00 12.1 94 22 29 NW - 326
11/10/19 21:00 13.9 94 20 26 NW - 331
11/10/19 20:00 15.5 95 22 29 NW - 334
11/10/19 19:00 17.1 95 21 26 N - 340
11/10/19 18:00 18.3 95 24 34 N - 341
11/10/19 17:00 17.2 95 24 33 N - 348
11/10/19 16:00 17.5 96 20 30 NW - 327
11/10/19 15:00 26.2 96 14 27 W - 291
11/10/19 14:00 27.0 96 10 23 W - 286
11/10/19 13:00 25.8 96 12 24 NW - 299
11/10/19 12:00 23.7 96 12 21 NW - 312
11/10/19 11:00 24.1 95 11 18 NW - 320
11/10/19 10:00 22.6 90 14 23 NW - 326
11/10/19 09:00 25.2 83 7 15 W - 282
11/10/19 08:00 24.8 77 7 13 W - 282
11/10/19 07:00 25.6 79 10 20 NW - 307